• Join FlightAware (Why Join?)
  • Login
  • US Flag 
07:10PM EDT


 

Airport Tracker/Info


-or-


 

Live Flight TrackerFlight Track Log ✈ UPS1121 ✈ 10-May-2013 ✈ KALB - KPHL

Flight Track Log - Related Links

Times and Time Zones

All times are in EDT time to prevent confusion due to time zone crossing. See the UPS1121 flight status page for this flight to view local times or setup timezone preferences in your user account.

Time Position Orientation Groundspeed Altitude Reporting Facility
EDT Latitude Longitude Course Direction KTS MPH feet Rate Location/Type
09:41PM 42.7339 -73.8081 194° South 148 170 1,800  Level Boston Center
09:42PM 42.7025 -73.8189 194° South 211 243 4,200 3,300 Climbing Boston Center
09:43PM 42.7056 -73.9092 273° West 211 243 7,500 3,300 Climbing Boston Center
09:44PM 42.6753 -73.9989 245° Southwest 233 268 10,900 3,060 Climbing Boston Center
09:45PM 42.6156 -74.0878 228° Southwest 288 331 13,700 3,120 Climbing Boston Center
09:46PM 42.5622 -74.1764 231° Southwest 332 382 17,200 2,640 Climbing Boston Center
09:47PM 42.4894 -74.2928 230° Southwest 367 422 19,000 900 Climbing Boston Center
09:48PM 42.4275 -74.3922 230° Southwest 383 441 19,000  Level Boston Center
09:53PM 42.0350 -75.0190 230° Southwest 386 444 19,000  Level FlightAware
09:54PM 41.9820 -75.1020 229° Southwest 387 445 19,000  Level FlightAware
09:55PM 41.9270 -75.1620 219° Southwest 394 453 19,000  Level FlightAware
09:56PM 41.8560 -75.2200 211° Southwest 387 445 19,000  Level FlightAware
09:56PM 41.7960 -75.2690 211° Southwest 387 445 19,000 -660 Level FlightAware
09:57PM 41.7440 -75.3110 211° Southwest 383 441 18,200 -1,980 Descending FlightAware
09:58PM 41.6720 -75.3690 211° Southwest 363 418 16,200 -2,400 Descending FlightAware
09:58PM 41.6120 -75.4170 211° Southwest 358 412 14,600 -1,680 Descending FlightAware
09:59PM 41.5470 -75.4700 211° Southwest 356 410 13,700 -540 Descending FlightAware
10:00PM 41.4870 -75.5180 211° Southwest 356 410 13,700 -480 Level FlightAware
10:03PM 41.2050 -75.6890 205° Southwest 325 374 12,000 -480 Descending FlightAware
10:04PM 41.1380 -75.6870 179° South 328 377 12,000  Level FlightAware
10:04PM 41.1054 -75.6796 170° South 329 379 12,000  Level FlightAware ADS-B
10:05PM 41.0577 -75.6617 164° South 330 380 12,000  Level FlightAware ADS-B
10:05PM 41.0114 -75.6439 164° South 335 386 12,000  Level FlightAware ADS-B
10:06PM 40.9649 -75.6265 164° South 336 387 12,000  Level FlightAware ADS-B
10:06PM 40.9206 -75.6097 164° South 314 361 12,000  Level FlightAware ADS-B
10:07PM 40.8759 -75.5927 164° South 316 364 12,000  Level FlightAware ADS-B
10:07PM 40.8343 -75.5768 164° South 311 358 12,000  Level FlightAware ADS-B
10:08PM 40.7919 -75.5608 164° South 315 362 12,000 -300 Level FlightAware ADS-B
10:08PM 40.7486 -75.5446 164° South 318 366 11,700 -720 Descending FlightAware ADS-B
10:08PM 40.7301 -75.5360 161° South 319 367 11,500 -720 Descending FlightAware ADS-B
10:09PM 40.6922 -75.5035 147° Southeast 318 366 11,200 -720 Descending FlightAware ADS-B
10:10PM 40.6489 -75.4644 146° Southeast 303 349 10,700 -720 Descending FlightAware ADS-B
10:10PM 40.6133 -75.4320 145° Southeast 295 339 10,400 -720 Descending FlightAware ADS-B
10:11PM 40.5794 -75.4018 146° Southeast 288 331 10,000 -840 Descending FlightAware ADS-B
10:11PM 40.5618 -75.3862 146° Southeast 283 326 9,800 -780 Descending FlightAware ADS-B
10:11PM 40.5451 -75.3713 146° Southeast 277 319 9,600 -600 Descending FlightAware ADS-B
10:11PM 40.5291 -75.3570 146° Southeast 274 315 9,500 -600 Descending FlightAware ADS-B
10:12PM 40.5111 -75.3408 146° Southeast 276 318 9,300 -780 Descending FlightAware ADS-B
10:12PM 40.4950 -75.3262 145° Southeast 274 315 9,100 -780 Descending FlightAware ADS-B
10:12PM 40.4788 -75.3117 146° Southeast 279 321 8,900 -1,200 Descending FlightAware ADS-B
10:12PM 40.4622 -75.2969 146° Southeast 277 319 8,500 -1,440 Descending FlightAware ADS-B
10:13PM 40.4464 -75.2828 146° Southeast 275 316 8,200 -1,200 Descending FlightAware ADS-B
10:13PM 40.4311 -75.2691 146° Southeast 272 313 7,900 -1,440 Descending FlightAware ADS-B
10:13PM 40.4153 -75.2545 145° Southeast 272 313 7,500 -1,500 Descending FlightAware ADS-B
10:13PM 40.3981 -75.2383 144° Southeast 272 313 7,100 -1,500 Descending FlightAware ADS-B
10:14PM 40.3823 -75.2238 145° Southeast 270 311 6,700 -1,200 Descending FlightAware ADS-B
10:14PM 40.3672 -75.2097 145° Southeast 266 306 6,500 -1,020 Descending FlightAware ADS-B
10:14PM 40.3520 -75.1959 145° Southeast 262 302 6,200 -1,200 Descending FlightAware ADS-B
10:14PM 40.3369 -75.1824 146° Southeast 259 298 5,900 -1,200 Descending FlightAware ADS-B
10:15PM 40.3220 -75.1686 145° Southeast 263 303 5,600 -1,020 Descending FlightAware ADS-B
10:15PM 40.3068 -75.1544 145° Southeast 262 302 5,400 -900 Descending FlightAware ADS-B
10:15PM 40.2951 -75.1436 145° Southeast 262 302 5,200 -1,200 Descending FlightAware ADS-B
10:15PM 40.2921 -75.1410 147° Southeast 262 302 5,100 -1,020 Descending FlightAware ADS-B
10:15PM 40.2887 -75.1384 150° Southeast 262 302 5,100 -780 Level FlightAware ADS-B
10:15PM 40.2839 -75.1354 155° Southeast 260 299 5,000 -1,500 Descending FlightAware ADS-B
10:15PM 40.2804 -75.1337 160° South 258 297 4,900 -1,380 Descending FlightAware ADS-B
10:15PM 40.2740 -75.1310 162° South 256 295 4,800 -1,200 Descending FlightAware ADS-B
10:16PM 40.2634 -75.1274 165° South 258 297 4,600 -1,680 Descending FlightAware ADS-B
10:16PM 40.2480 -75.1225 166° South 265 305 4,200 -1,260 Descending FlightAware ADS-B
10:16PM 40.2347 -75.1181 166° South 268 308 4,100 -480 Descending FlightAware ADS-B
10:16PM 40.2161 -75.1118 165° South 267 307 4,000 -240 Descending FlightAware ADS-B
10:17PM 40.1987 -75.1059 165° South 263 303 4,000  Level FlightAware ADS-B
10:17PM 40.1892 -75.1027 166° South 259 298 4,000  Level FlightAware ADS-B
10:17PM 40.1709 -75.0967 166° South 252 290 4,000  Level FlightAware ADS-B
10:17PM 40.1541 -75.0913 166° South 242 278 4,000  Level FlightAware ADS-B
10:17PM 40.1442 -75.0881 166° South 238 274 4,000 300 Level FlightAware ADS-B
10:18PM 40.1333 -75.0845 166° South 238 274 4,100  Climbing FlightAware ADS-B
10:18PM 40.1177 -75.0792 165° South 233 268 4,000 -300 Descending FlightAware ADS-B
10:18PM 40.1088 -75.0760 165° South 233 268 4,000  Level FlightAware ADS-B
10:18PM 40.0916 -75.0701 165° South 228 262 4,000  Level FlightAware ADS-B
10:18PM 40.0735 -75.0642 166° South 220 253 4,000 -240 Level FlightAware ADS-B
10:19PM 40.0588 -75.0591 165° South 215 247 3,900 -600 Descending FlightAware ADS-B
10:19PM 40.0418 -75.0538 167° South 211 243 3,700 -780 Descending FlightAware ADS-B
10:19PM 40.0271 -75.0519 174° South 207 238 3,500 -600 Descending FlightAware ADS-B
10:19PM 40.0207 -75.0516 178° South 204 235 3,500 -600 Level FlightAware ADS-B
10:20PM 40.0065 -75.0522 182° South 201 231 3,300 -780 Descending FlightAware ADS-B
10:20PM 39.9919 -75.0549 188° South 198 228 3,100 -720 Descending FlightAware ADS-B
10:20PM 39.9741 -75.0587 189° South 196 226 2,900 -840 Descending FlightAware ADS-B
10:21PM 39.9586 -75.0620 189° South 193 222 2,600 -900 Descending FlightAware ADS-B
10:21PM 39.9507 -75.0641 192° South 192 221 2,500 -780 Descending FlightAware ADS-B
10:21PM 39.9375 -75.0688 195° South 191 220 2,300 -720 Descending FlightAware ADS-B
10:21PM 39.9286 -75.0720 195° South 188 216 2,200 -480 Descending FlightAware ADS-B
10:21PM 39.9180 -75.0789 207° Southwest 180 207 2,100 -300 Descending FlightAware ADS-B
10:21PM 39.9141 -75.0825 215° Southwest 173 199 2,100  Level FlightAware ADS-B
10:22PM 39.9117 -75.0851 220° Southwest 170 196 2,100  Level FlightAware ADS-B
10:22PM 39.9093 -75.0883 226° Southwest 165 190 2,100  Level FlightAware ADS-B
10:22PM 39.9061 -75.0929 228° Southwest 159 183 2,100  Level FlightAware ADS-B
10:22PM 39.9043 -75.0958 231° Southwest 154 177 2,100 -780 Level FlightAware ADS-B
10:22PM 39.9027 -75.0987 234° Southwest 152 175 2,000 -1,500 Descending FlightAware ADS-B
10:22PM 39.9013 -75.1015 237° Southwest 150 173 1,900 -720 Descending FlightAware ADS-B
10:22PM 39.8997 -75.1058 244° Southwest 148 170 1,900 -600 Level FlightAware ADS-B
10:22PM 39.8985 -75.1095 247° West 145 167 1,800 -720 Descending FlightAware ADS-B
10:22PM 39.8976 -75.1127 250° West 142 163 1,800 -780 Level FlightAware ADS-B
10:22PM 39.8968 -75.1162 253° West 137 158 1,700 -720 Descending FlightAware ADS-B
10:22PM 39.8945 -75.1259 253° West 123 142 1,600 -660 Descending FlightAware ADS-B
10:23PM 39.8922 -75.1369 255° West 116 133 1,400 -720 Descending FlightAware ADS-B
10:23PM 39.8908 -75.1436 255° West 112 129 1,300 -660 Descending FlightAware ADS-B
10:23PM 39.8897 -75.1492 256° West 109 125 1,200 -840 Descending FlightAware ADS-B
10:23PM 39.8891 -75.1529 258° West 111 128 1,100 -600 Descending FlightAware ADS-B
10:23PM 39.8875 -75.1618 257° West 109 125 1,000 -600 Descending FlightAware ADS-B
10:23PM 39.8867 -75.1655 254° West 107 123 900 -720 Descending FlightAware ADS-B
10:24PM 39.8853 -75.1724 255° West 105 121 800 -480 Descending FlightAware ADS-B
10:24PM 39.8834 -75.1821 256° West 104 120 700 -540 Descending FlightAware ADS-B
10:24PM 39.8825 -75.1863 254° West 106 122 600 -540 Descending FlightAware ADS-B
10:24PM 39.8806 -75.1962 256° West 105 121 500 -480 Descending FlightAware ADS-B
10:24PM 39.8790 -75.2037 254° West 111 128 400 -240 Descending FlightAware ADS-B
10:25PM 39.8750 -75.2260 257° West 109 125 300 -180 Descending FlightAware
10:32PM 39.8667 -75.2333 247° West  Level FlightAware Approximate
10:33PM 39.8722 -75.2409 247° West  Level Estimated